Time;durP1;ratioP1;P1;durP2;ratioP2;P2;SDS_P1;SDS_P2;PMS_P1;PMS_P2;Temp;Humidity;BMP_temperature;BMP_pressure;BME280_temperature;BME280_humidity;BME280_pressure;Samples;Min_cycle;Max_cycle;Signal;HPM_P1;HPM_P2
2022/06/09 00:01:15;;;;;;;0.10;0.10;;;;;;;21.33;50.19;100473.81;5130378;28;20093;-38
2022/06/09 00:03:46;;;;;;;0.10;0.10;;;;;;;21.32;50.15;100472.16;5130501;28;20512;-38
2022/06/09 00:06:12;;;;;;;0.10;0.10;;;;;;;21.33;50.24;100481.28;5131039;27;20555;-38
2022/06/09 00:08:41;;;;;;;0.10;0.10;;;;;;;21.33;50.31;100486.81;5129394;28;20441;-38
2022/06/09 00:11:06;;;;;;;;;;;;;;;21.34;50.27;100485.72;5130883;28;20086;-38
2022/06/09 00:13:34;;;;;;;0.10;0.10;;;;;;;21.32;50.23;100480.44;5128689;28;19927;-38
2022/06/09 00:16:01;;;;;;;0.10;0.10;;;;;;;21.32;50.11;100485.19;5113041;28;20584;-38
2022/06/09 00:18:27;;;;;;;0.13;0.13;;;;;;;21.31;50.33;100487.09;5108811;28;20933;-37
2022/06/09 00:20:53;;;;;;;0.10;0.10;;;;;;;21.32;50.24;100482.41;5130933;28;20134;-39
2022/06/09 00:23:19;;;;;;;0.20;0.20;;;;;;;21.32;50.32;100488.75;5130276;28;20058;-38
2022/06/09 00:25:45;;;;;;;0.10;0.10;;;;;;;21.31;50.28;100495.41;5128889;27;20131;-38
2022/06/09 00:28:11;;;;;;;0.10;0.10;;;;;;;21.31;50.17;100489.88;5129091;28;20043;-39
2022/06/09 00:30:37;;;;;;;0.10;0.10;;;;;;;21.32;50.21;100496.25;5128611;28;20046;-38
2022/06/09 00:33:03;;;;;;;0.10;0.10;;;;;;;21.31;50.43;100492.63;5130377;28;20443;-38
2022/06/09 00:35:29;;;;;;;0.10;0.10;;;;;;;21.32;50.25;100493.50;5129664;28;20044;-39
2022/06/09 00:37:55;;;;;;;0.10;0.10;;;;;;;21.32;50.13;100499.03;5129743;28;20047;-39
2022/06/09 00:40:21;;;;;;;0.10;0.10;;;;;;;21.30;50.37;100502.91;5109420;28;20045;-38
2022/06/09 00:42:46;;;;;;;0.10;0.10;;;;;;;21.31;50.21;100498.19;5129078;28;20086;-38
2022/06/09 00:45:33;;;;;;;0.10;0.10;;;;;;;21.31;50.27;100503.72;5129321;28;20045;-39
2022/06/09 00:48:23;;;;;;;0.10;0.10;;;;;;;21.30;50.33;100499.31;5111864;28;20046;-39
2022/06/09 00:50:56;;;;;;;0.10;0.10;;;;;;;21.30;50.17;100502.09;5110228;28;20051;-39
2022/06/09 00:53:25;;;;;;;0.17;0.17;;;;;;;21.30;50.13;100505.66;5112640;28;20517;-38
2022/06/09 00:55:51;;;;;;;0.10;0.10;;;;;;;21.31;50.26;100503.72;5129417;28;20051;-39
2022/06/09 00:58:20;;;;;;;0.10;0.10;;;;;;;21.31;50.24;100506.50;5129569;28;20126;-38
2022/06/09 01:00:51;;;;;;;0.10;0.10;;;;;;;21.30;50.35;100513.97;5128306;28;20474;-38
2022/06/09 01:03:18;;;;;;;0.17;0.17;;;;;;;21.30;50.24;100504.84;5128753;28;20046;-39
2022/06/09 01:05:45;;;;;;;0.10;0.10;;;;;;;21.30;50.20;100502.91;5129243;28;20475;-38
2022/06/09 01:08:11;;;;;;;0.10;0.10;;;;;;;21.30;50.21;100505.66;5128115;28;20099;-38
2022/06/09 01:10:37;;;;;;;0.10;0.10;;;;;;;21.30;50.31;100510.38;5124838;28;20488;-38
2022/06/09 01:13:03;;;;;;;0.10;0.10;;;;;;;21.30;50.20;100507.63;5108597;28;20134;-39
2022/06/09 01:15:38;;;;;;;0.10;0.10;;;;;;;21.30;50.22;100508.44;5128593;28;20035;-39
2022/06/09 01:18:28;;;;;;;0.10;0.10;;;;;;;21.30;50.28;100507.63;5108773;28;20375;-39
2022/06/09 01:21:18;;;;;;;0.10;0.10;;;;;;;21.29;50.33;100517.88;5115483;28;20070;-38
2022/06/09 01:24:04;;;;;;;0.10;0.10;;;;;;;21.29;50.26;100520.66;5112953;28;20115;-39
2022/06/09 01:29:44;;;;;;;0.10;0.10;;;;;;;21.28;50.37;100518.16;5160166;27;20440;-30
2022/06/09 01:32:23;;;;;;;0.10;0.10;;;;;;;21.29;50.46;100530.91;5142117;27;20141;-38
2022/06/09 01:37:32;;;;;;;0.10;0.10;;;;;;;21.28;50.22;100535.59;5167367;27;20209;-31
2022/06/09 01:40:00;;;;;;;0.10;0.10;;;;;;;21.28;50.37;100541.13;5135149;27;20521;-38
2022/06/09 01:42:37;;;;;;;0.10;0.10;;;;;;;21.28;50.22;100538.38;5098437;27;20398;-39
2022/06/09 01:45:10;;;;;;;0.10;0.10;;;;;;;21.28;50.26;100541.13;5126085;27;20082;-38
2022/06/09 01:47:41;;;;;;;0.10;0.10;;;;;;;21.29;50.37;100533.69;5121847;27;20073;-38
2022/06/09 01:50:14;;;;;;;0.10;0.10;;;;;;;21.27;50.26;100536.72;5124909;27;20474;-39
2022/06/09 01:52:42;;;;;;;0.10;0.10;;;;;;;21.27;50.11;100533.97;5127806;27;20044;-38
2022/06/09 01:55:10;;;;;;;;;;;;;;;21.27;50.27;100539.50;5125345;27;20070;-39
2022/06/09 01:57:37;;;;;;;0.10;0.10;;;;;;;21.26;50.28;100546.19;5124310;27;20002;-38
2022/06/09 02:00:08;;;;;;;0.10;0.10;;;;;;;21.28;50.44;100545.88;5126767;27;20071;-39
2022/06/09 02:02:37;;;;;;;0.10;0.10;;;;;;;21.27;50.27;100547.81;5125081;27;20070;-38
2022/06/09 02:05:08;;;;;;;0.10;0.10;;;;;;;21.26;50.24;100551.72;5109768;28;20086;-38
2022/06/09 02:07:36;;;;;;;0.10;0.10;;;;;;;21.27;50.35;100547.81;5127963;27;20126;-39
2022/06/09 02:10:28;;;;;;;0.10;0.10;;;;;;;21.27;50.20;100558.88;5123488;27;20071;-39
2022/06/09 02:12:55;;;;;;;0.10;0.10;;;;;;;21.27;50.36;100549.75;5123246;27;20048;-36
2022/06/09 02:15:24;;;;;;;0.10;0.10;;;;;;;21.27;50.12;100555.31;5129434;27;20522;-38
2022/06/09 02:17:51;;;;;;;0.10;0.10;;;;;;;21.27;50.19;100553.34;5125136;27;20493;-37
2022/06/09 02:20:18;;;;;;;0.10;0.10;;;;;;;21.27;50.23;100561.66;5124183;27;20224;-39
2022/06/09 02:22:44;;;;;;;0.10;0.10;;;;;;;21.26;50.38;100573.88;5125425;27;20553;-40
2022/06/09 02:25:11;;;;;;;0.10;0.10;;;;;;;21.26;50.25;100565.56;5122961;28;20077;-38
2022/06/09 02:27:37;;;;;;;0.10;0.10;;;;;;;21.26;50.32;100571.09;5122610;27;20230;-36
2022/06/09 02:30:04;;;;;;;0.10;0.10;;;;;;;21.26;50.12;100568.34;5128301;27;20390;-38
2022/06/09 02:32:32;;;;;;;0.10;0.10;;;;;;;21.27;50.24;100577.47;5108412;28;20214;-40
2022/06/09 02:34:58;;;;;;;0.10;0.10;;;;;;;21.26;50.24;100582.19;5125101;27;20478;-39
2022/06/09 02:37:24;;;;;;;0.10;0.10;;;;;;;21.25;50.34;100574.19;5123122;27;20090;-38
2022/06/09 02:39:49;;;;;;;0.10;0.10;;;;;;;21.26;50.21;100576.66;5123251;27;20047;-39
2022/06/09 02:42:15;;;;;;;0.10;0.10;;;;;;;21.25;50.34;100574.19;5126007;27;20048;-38
2022/06/09 02:44:41;;;;;;;0.10;0.10;;;;;;;21.26;50.26;100573.06;5125147;27;20048;-38
2022/06/09 02:47:06;;;;;;;0.10;0.10;;;;;;;21.25;50.37;100576.97;5112040;28;20126;-38
2022/06/09 02:49:32;;;;;;;0.10;0.10;;;;;;;21.24;50.15;100566.97;5106872;28;20044;-40
2022/06/09 02:51:58;;;;;;;0.20;0.20;;;;;;;21.25;50.20;100574.19;5112748;28;20040;-38
2022/06/09 02:54:23;;;;;;;0.10;0.10;;;;;;;21.25;50.33;100582.50;5110749;28;20043;-38
2022/06/09 02:56:49;;;;;;;0.10;0.10;;;;;;;21.24;50.22;100578.06;5110192;28;20466;-38
2022/06/09 02:59:15;;;;;;;0.10;0.10;;;;;;;21.25;50.20;100574.19;5110422;28;20058;-38
2022/06/09 03:01:40;;;;;;;0.10;0.10;;;;;;;21.24;50.05;100576.13;5112666;28;20374;-37
2022/06/09 03:04:07;;;;;;;0.10;0.10;;;;;;;21.25;50.26;100583.31;5112417;28;20504;-39
2022/06/09 03:06:33;;;;;;;0.10;0.10;;;;;;;21.25;50.20;100582.50;5113615;28;20052;-39
2022/06/09 03:08:59;;;;;;;0.20;0.20;;;;;;;21.25;50.07;100593.56;5110717;28;20124;-38
2022/06/09 03:11:25;;;;;;;0.10;0.10;;;;;;;21.25;50.24;100579.72;5111405;28;20043;-38
2022/06/09 03:13:51;;;;;;;0.10;0.10;;;;;;;21.25;50.14;100590.81;5112022;28;20040;-39
2022/06/09 03:16:16;;;;;;;0.10;0.10;;;;;;;21.23;50.24;100593.84;5111255;28;20099;-38
2022/06/09 03:18:43;;;;;;;0.10;0.10;;;;;;;21.25;50.29;100596.34;5107589;28;20127;-39
2022/06/09 03:21:09;;;;;;;0.10;0.10;;;;;;;21.23;50.23;100599.41;5093696;28;20404;-38
2022/06/09 03:23:35;;;;;;;0.10;0.10;;;;;;;21.24;50.24;100605.75;5106402;28;20082;-39
2022/06/09 03:26:01;;;;;;;0.10;0.10;;;;;;;21.25;50.16;100618.50;5111589;28;20055;-38
2022/06/09 03:28:27;;;;;;;0.10;0.10;;;;;;;21.25;50.23;100621.28;5107475;28;20563;-39
2022/06/09 03:30:52;;;;;;;0.10;0.10;;;;;;;21.25;50.30;100615.72;5112605;28;20040;-37
2022/06/09 03:33:18;;;;;;;0.10;0.10;;;;;;;21.24;50.19;100622.38;5111881;28;20036;-39
2022/06/09 03:35:43;;;;;;;0.10;0.10;;;;;;;21.23;50.11;100616.00;5111419;28;20134;-38
2022/06/09 03:38:09;;;;;;;0.10;0.10;;;;;;;21.24;50.35;100634.28;5111875;28;20054;-38
2022/06/09 03:40:35;;;;;;;0.10;0.10;;;;;;;21.24;50.26;100626.00;5111643;28;20043;-38
2022/06/09 03:43:02;;;;;;;0.10;0.10;;;;;;;21.24;50.25;100634.28;5110544;28;20047;-38
2022/06/09 03:45:30;;;;;;;0.10;0.10;;;;;;;21.24;50.29;100628.75;5110881;28;20465;-39
2022/06/09 03:47:56;;;;;;;0.13;0.13;;;;;;;21.24;50.07;100639.00;5108769;28;20466;-39
2022/06/09 03:50:24;;;;;;;0.10;0.10;;;;;;;21.23;50.11;100640.13;5110865;28;20050;-39
2022/06/09 03:52:49;;;;;;;0.10;0.10;;;;;;;21.23;50.30;100635.41;5103829;28;20544;-39
2022/06/09 03:55:16;;;;;;;0.10;0.10;;;;;;;21.23;50.31;100634.59;5110608;28;20104;-38
2022/06/09 03:57:41;;;;;;;0.10;0.10;;;;;;;21.22;50.16;100644.03;5111037;28;20143;-38
2022/06/09 04:00:10;;;;;;;0.10;0.10;;;;;;;21.22;50.34;100644.84;5108218;28;20047;-38
2022/06/09 04:02:35;;;;;;;0.10;0.10;;;;;;;21.22;50.18;100653.16;5113526;28;20130;-39
2022/06/09 04:05:02;;;;;;;0.10;0.10;;;;;;;21.22;50.15;100663.41;5108847;28;20046;-40
2022/06/09 04:07:27;;;;;;;0.10;0.10;;;;;;;21.22;50.15;100668.94;5114618;28;20055;-39
2022/06/09 04:09:53;;;;;;;0.10;0.10;;;;;;;21.23;50.23;100670.59;5108815;28;20085;-38
2022/06/09 04:12:19;;;;;;;0.10;0.10;;;;;;;21.23;50.24;100665.03;5096013;28;20152;-38
2022/06/09 04:14:47;;;;;;;0.10;0.10;;;;;;;21.22;50.04;100664.22;5109500;28;20393;-38
2022/06/09 04:17:13;;;;;;;0.10;0.10;;;;;;;21.22;50.25;100680.03;5110082;28;20078;-39
2022/06/09 04:19:39;;;;;;;0.10;0.10;;;;;;;21.22;50.28;100680.03;5109114;28;20402;-38
2022/06/09 04:22:05;;;;;;;0.10;0.10;;;;;;;21.22;50.28;100680.03;5110328;28;20075;-37
2022/06/09 04:24:31;;;;;;;0.10;0.10;;;;;;;21.23;50.10;100685.25;5108006;28;20084;-39
2022/06/09 04:26:57;;;;;;;0.10;0.10;;;;;;;21.22;50.24;100685.56;5109675;28;20132;-38
2022/06/09 04:29:22;;;;;;;0.10;0.10;;;;;;;21.20;50.13;100673.94;5106264;28;20525;-39
2022/06/09 04:31:48;;;;;;;0.10;0.10;;;;;;;21.22;50.18;100680.84;5117708;28;20118;-39
2022/06/09 04:34:14;;;;;;;0.10;0.10;;;;;;;21.21;50.29;100681.97;5109207;28;20479;-38
2022/06/09 04:36:41;;;;;;;0.10;0.10;;;;;;;21.22;50.29;100685.56;5108306;28;20050;-40
2022/06/09 04:39:07;;;;;;;0.10;0.10;;;;;;;21.21;50.01;100684.75;5111009;28;20126;-38
2022/06/09 04:41:34;;;;;;;0.10;0.10;;;;;;;21.21;50.34;100686.69;5109550;28;20766;-39
2022/06/09 04:43:59;;;;;;;0.10;0.10;;;;;;;21.21;50.17;100693.06;5111223;28;20119;-38
2022/06/09 04:46:25;;;;;;;0.10;0.10;;;;;;;21.21;50.00;100698.59;5101662;28;20062;-39
2022/06/09 04:48:51;;;;;;;0.10;0.10;;;;;;;21.21;50.09;100703.31;5102705;28;20387;-39
2022/06/09 04:51:19;;;;;;;0.10;0.10;;;;;;;21.20;50.19;100699.72;5109480;28;20466;-39
2022/06/09 04:53:45;;;;;;;0.10;0.10;;;;;;;21.21;50.17;100703.31;5106186;28;20086;-39
2022/06/09 04:56:11;;;;;;;0.17;0.17;;;;;;;21.20;50.20;100709.94;5105467;28;20482;-39
2022/06/09 04:58:38;;;;;;;0.10;0.10;;;;;;;21.21;50.26;100719.94;5106879;28;20612;-39
2022/06/09 05:01:05;;;;;;;0.10;0.10;;;;;;;21.21;50.13;100720.75;5108088;28;20124;-38
2022/06/09 05:03:32;;;;;;;0.10;0.10;;;;;;;21.20;50.32;100719.09;5105371;28;20086;-36
2022/06/09 05:05:58;;;;;;;0.20;0.20;;;;;;;21.20;50.19;100729.34;5106822;28;20470;-38
2022/06/09 05:08:24;;;;;;;0.10;0.10;;;;;;;21.21;50.22;100728.22;5104912;28;20466;-38
2022/06/09 05:10:50;;;;;;;0.10;0.10;;;;;;;21.21;50.33;100739.31;5104502;28;20051;-38
2022/06/09 05:13:16;;;;;;;0.10;0.10;;;;;;;21.21;50.20;100740.13;5103616;28;20047;-39
2022/06/09 05:15:48;;;;;;;0.20;0.20;;;;;;;21.20;50.17;100735.72;5103154;28;20359;-39
2022/06/09 05:18:14;;;;;;;0.10;0.10;;;;;;;21.21;50.30;100731.81;5104883;28;20067;-38
2022/06/09 05:20:40;;;;;;;0.10;0.10;;;;;;;21.20;50.12;100737.63;5101696;28;20047;-38
2022/06/09 05:23:06;;;;;;;0.20;0.20;;;;;;;21.19;50.27;100739.59;5109890;28;20071;-39
2022/06/09 05:25:32;;;;;;;0.10;0.10;;;;;;;21.19;50.25;100747.91;5101859;28;20173;-38
2022/06/09 05:27:59;;;;;;;0.10;0.10;;;;;;;21.19;50.17;100747.91;5096747;28;20043;-39
2022/06/09 05:30:24;;;;;;;0.10;0.10;;;;;;;21.18;50.11;100754.56;5097087;28;20186;-39
2022/06/09 05:32:51;;;;;;;0.10;0.10;;;;;;;21.20;50.00;100752.34;5081812;28;20051;-38
2022/06/09 05:35:18;;;;;;;0.10;0.10;;;;;;;21.19;50.10;100752.63;5101921;28;20134;-39
2022/06/09 05:46:02;;;;;;;0.15;0.15;;;;;;;21.19;50.14;100774.78;5082412;28;20309;-38
2022/06/09 05:48:28;;;;;;;0.10;0.10;;;;;;;21.19;50.21;100778.34;5100031;28;20177;-38
2022/06/09 05:50:54;;;;;;;0.10;0.10;;;;;;;21.19;50.10;100783.91;5103532;28;20047;-38
2022/06/09 05:53:20;;;;;;;0.10;0.10;;;;;;;21.18;50.00;100785.03;5096812;28;20143;-39
2022/06/09 05:55:46;;;;;;;0.10;0.10;;;;;;;21.18;50.00;100793.34;5096767;28;20040;-38
2022/06/09 05:58:12;;;;;;;0.10;0.10;;;;;;;21.20;50.03;100798.56;5102141;28;20047;-39
2022/06/09 06:00:38;;;;;;;0.10;0.10;;;;;;;21.19;50.10;100797.75;5094848;28;20340;-39
2022/06/09 06:03:11;;;;;;;0.20;0.20;;;;;;;21.18;50.11;100804.41;5092988;28;20050;-39
2022/06/09 06:08:24;;;;;;;0.10;0.10;;;;;;;21.18;50.21;100807.19;5083328;28;20097;-38
2022/06/09 06:10:50;;;;;;;0.10;0.10;;;;;;;21.18;50.20;100812.72;5099080;28;20474;-39
2022/06/09 06:13:15;;;;;;;0.10;0.10;;;;;;;21.18;50.12;100812.72;5099574;28;20048;-38
2022/06/09 06:15:41;;;;;;;0.10;0.10;;;;;;;21.18;50.15;100818.25;5097931;28;20055;-38
2022/06/09 06:18:07;;;;;;;0.10;0.10;;;;;;;21.19;50.22;100816.31;5100055;28;20035;-38
2022/06/09 06:20:34;;;;;;;0.10;0.10;;;;;;;21.17;50.04;100816.63;5099023;28;20043;-39
2022/06/09 06:22:59;;;;;;;0.10;0.10;;;;;;;21.18;50.07;100820.22;5097626;28;20139;-38
2022/06/09 06:25:26;;;;;;;0.10;0.10;;;;;;;21.14;50.56;100825.50;5104250;28;20051;-41
2022/06/09 06:27:52;;;;;;;0.10;0.10;;;;;;;21.21;50.34;100822.41;5104386;28;20074;-41
2022/06/09 06:30:18;;;;;;;0.10;0.10;;;;;;;21.21;50.32;100822.41;5104147;28;20122;-41
2022/06/09 06:32:45;;;;;;;0.10;0.10;;;;;;;21.20;50.15;100827.13;5103653;28;20083;-40
2022/06/09 06:35:12;;;;;;;0.10;0.10;;;;;;;21.20;50.34;100829.88;5105375;28;20090;-40
2022/06/09 06:37:41;;;;;;;0.10;0.10;;;;;;;21.21;50.04;100833.47;5093130;28;20863;-40
2022/06/09 06:40:10;;;;;;;0.10;0.10;;;;;;;21.20;50.16;100838.19;5086647;28;20339;-39
2022/06/09 06:42:35;;;;;;;0.20;0.20;;;;;;;21.21;50.24;100842.59;5108145;28;20612;-40
2022/06/09 06:45:01;;;;;;;0.20;0.20;;;;;;;21.21;50.09;100841.78;5103107;28;20052;-40
2022/06/09 06:47:28;;;;;;;0.10;0.10;;;;;;;21.19;50.17;100842.06;5103888;28;20074;-40
2022/06/09 06:49:55;;;;;;;0.10;0.10;;;;;;;21.21;50.29;100852.84;5094029;28;20135;-43
2022/06/09 06:52:21;;;;;;;0.10;0.10;;;;;;;21.20;50.18;100851.19;5101988;28;20050;-43
2022/06/09 06:54:47;;;;;;;0.10;0.10;;;;;;;21.21;49.95;100858.41;5087783;28;20174;-44
2022/06/09 06:57:13;;;;;;;0.10;0.10;;;;;;;21.21;50.01;100869.47;5101584;28;20039;-43
2022/06/09 06:59:38;;;;;;;0.10;0.10;;;;;;;21.21;50.15;100861.16;5079292;28;20050;-42
2022/06/09 07:02:04;;;;;;;0.10;0.10;;;;;;;21.19;50.03;100866.97;5098317;28;20061;-43
2022/06/09 07:04:30;;;;;;;0.10;0.10;;;;;;;21.20;50.10;100865.03;5077164;28;20048;-43
2022/06/09 07:06:57;;;;;;;0.10;0.10;;;;;;;21.19;50.03;100875.28;5096950;28;20387;-43
2022/06/09 07:09:22;;;;;;;0.10;0.10;;;;;;;21.20;50.04;100881.66;5093961;28;20071;-44
2022/06/09 07:11:48;;;;;;;0.10;0.10;;;;;;;21.21;50.17;100881.38;5091696;28;20082;-43
2022/06/09 07:14:14;;;;;;;0.10;0.10;;;;;;;21.19;49.92;100878.06;5073795;28;20088;-43
2022/06/09 07:16:39;;;;;;;0.10;0.10;;;;;;;21.20;49.96;100889.97;5080376;28;20052;-43
2022/06/09 07:19:12;;;;;;;0.10;0.10;;;;;;;21.20;49.96;100896.34;5096512;28;20052;-40
2022/06/09 07:21:38;;;;;;;0.13;0.13;;;;;;;21.20;50.08;100889.97;5100949;28;20451;-41
2022/06/09 07:24:04;;;;;;;0.20;0.20;;;;;;;21.20;49.91;100901.88;5100120;28;20051;-43
2022/06/09 07:26:30;;;;;;;0.10;0.10;;;;;;;21.19;49.98;100899.41;5099723;28;20078;-42
2022/06/09 07:28:55;;;;;;;0.10;0.10;;;;;;;21.19;50.18;100908.53;5093737;28;21642;-43
2022/06/09 07:31:21;;;;;;;0.10;0.10;;;;;;;21.20;50.08;100915.72;5101599;28;20047;-43
2022/06/09 07:33:47;;;;;;;0.10;0.10;;;;;;;21.21;50.13;100920.16;5098546;28;20470;-43
2022/06/09 07:36:16;;;;;;;0.10;0.10;;;;;;;21.19;49.98;100925.13;5099658;28;20039;-43
2022/06/09 07:38:41;;;;;;;0.10;0.10;;;;;;;21.21;50.15;100925.69;5098094;28;20079;-43
2022/06/09 07:41:08;;;;;;;0.10;0.10;;;;;;;21.21;50.07;100927.63;5103067;28;20059;-43
2022/06/09 07:43:53;;;;;;;0.10;0.10;;;;;;;21.19;50.18;100929.84;5071332;28;20490;-43
2022/06/09 07:46:19;;;;;;;0.10;0.10;;;;;;;21.21;50.00;100933.19;5104144;28;20054;-43
2022/06/09 07:48:45;;;;;;;0.10;0.10;;;;;;;21.21;50.12;100930.41;5096174;28;20044;-43
2022/06/09 07:51:14;;;;;;;0.10;0.10;;;;;;;21.19;50.14;100924.31;5084669;28;20142;-43
2022/06/09 07:53:40;;;;;;;0.10;0.10;;;;;;;21.19;49.91;100927.91;5101670;28;20405;-42
2022/06/09 07:56:06;;;;;;;0.10;0.10;;;;;;;21.19;50.08;100925.13;5082004;28;20040;-43
2022/06/09 07:58:31;;;;;;;0.10;0.10;;;;;;;21.20;49.99;100925.97;5100303;28;21588;-43
2022/06/09 08:00:57;;;;;;;0.10;0.10;;;;;;;21.19;50.02;100929.84;5090341;28;20086;-43
2022/06/09 08:03:25;;;;;;;0.10;0.10;;;;;;;21.21;49.93;100933.19;5082674;28;20051;-43
2022/06/09 08:05:51;;;;;;;0.10;0.10;;;;;;;21.21;49.85;100944.25;5086197;28;20048;-43
2022/06/09 08:08:36;;;;;;;0.10;0.10;;;;;;;21.20;50.01;100950.88;5080721;28;20047;-43
2022/06/09 08:11:05;;;;;;;0.20;0.20;;;;;;;21.21;50.02;100952.56;5077037;28;21445;-44
2022/06/09 08:13:32;;;;;;;0.20;0.20;;;;;;;21.20;50.08;100946.19;5090988;28;20071;-44
2022/06/09 08:15:58;;;;;;;0.10;0.10;;;;;;;21.19;49.92;100950.06;5097921;28;20135;-44
2022/06/09 08:18:24;;;;;;;0.10;0.10;;;;;;;21.20;49.94;100953.66;5096461;28;20128;-43
2022/06/09 08:20:50;;;;;;;0.10;0.10;;;;;;;21.21;50.07;100960.88;5091712;28;20655;-43
2022/06/09 08:23:30;;;;;;;0.20;0.20;;;;;;;21.20;50.02;100962.81;5084383;28;20043;-43
2022/06/09 08:25:58;;;;;;;0.10;0.10;;;;;;;21.21;49.94;100966.41;5101432;28;20085;-43
2022/06/09 08:28:25;;;;;;;0.10;0.10;;;;;;;21.21;49.86;100971.94;5096433;28;20101;-43
2022/06/09 08:30:53;;;;;;;0.10;0.10;;;;;;;21.20;49.72;100967.50;5098003;28;20075;-42
2022/06/09 08:33:19;;;;;;;0.20;0.20;;;;;;;21.19;49.96;100974.16;5091554;28;20133;-43
2022/06/09 08:35:45;;;;;;;0.10;0.10;;;;;;;21.19;49.85;100977.75;5090096;28;20170;-43
2022/06/09 08:38:11;;;;;;;0.15;0.15;;;;;;;21.19;49.84;100975.00;5089680;28;20086;-43
2022/06/09 08:43:37;;;;;;;0.10;0.10;;;;;;;21.21;49.83;100985.81;5156899;27;20120;-32
2022/06/09 08:46:13;;;;;;;0.10;0.10;;;;;;;21.21;49.83;100988.56;5148183;27;20042;-32
2022/06/09 08:48:40;;;;;;;0.17;0.17;;;;;;;21.21;49.90;100988.56;5145650;27;20430;-32
2022/06/09 08:51:11;;;;;;;0.10;0.10;;;;;;;21.21;49.99;100992.16;5155682;27;20093;-32
2022/06/09 08:53:42;;;;;;;0.10;0.10;;;;;;;21.22;49.93;100995.75;5154646;27;20136;-31
2022/06/09 08:56:15;;;;;;;0.10;0.10;;;;;;;21.18;50.04;100987.19;5149866;27;20066;-32
2022/06/09 08:58:45;;;;;;;0.20;0.20;;;;;;;21.19;50.13;100994.38;5153465;27;20130;-31
2022/06/09 09:03:52;;;;;;;0.28;0.28;;;;;;;21.20;50.13;100997.97;5163772;27;20120;-33
2022/06/09 09:06:24;;;;;;;0.20;0.20;;;;;;;21.20;50.04;101004.38;5156376;27;20042;-31
2022/06/09 09:09:03;;;;;;;0.20;0.20;;;;;;;21.26;50.65;100991.28;5132943;27;20483;-44
2022/06/09 09:11:42;;;;;;;0.10;0.10;;;;;;;21.29;50.36;100997.06;5130698;27;20493;-43
2022/06/09 09:14:20;;;;;;;0.15;0.15;;;;;;;21.28;50.56;100997.34;5153795;27;20089;-42
2022/06/09 09:16:54;;;;;;;0.10;0.10;;;;;;;21.26;50.45;100996.81;5138930;27;20069;-43
2022/06/09 09:19:35;;;;;;;0.10;0.10;;;;;;;21.25;50.22;101006.25;5152446;27;20453;-42
2022/06/09 09:22:28;;;;;;;0.10;0.10;;;;;;;21.25;50.34;101006.25;5156166;27;20054;-42
2022/06/09 09:25:03;;;;;;;0.10;0.10;;;;;;;21.25;50.21;101003.47;5136743;27;20518;-42
2022/06/09 09:27:34;;;;;;;0.10;0.10;;;;;;;21.24;50.32;101005.44;5156098;27;20051;-43
2022/06/09 09:30:15;;;;;;;0.10;0.10;;;;;;;21.24;50.27;101008.19;5135195;27;20442;-43
2022/06/09 09:32:44;;;;;;;0.10;0.10;;;;;;;21.23;50.24;101005.69;5136730;27;20061;-42
2022/06/09 09:35:19;;;;;;;0.10;0.10;;;;;;;21.24;50.23;101019.28;5149888;27;20074;-43
2022/06/09 09:37:48;;;;;;;0.10;0.10;;;;;;;21.24;50.26;101023.97;5142158;27;20146;-43
2022/06/09 09:40:20;;;;;;;0.20;0.20;;;;;;;21.24;50.26;101026.72;5148979;27;20078;-42
2022/06/09 09:42:47;;;;;;;0.20;0.20;;;;;;;21.24;50.07;101018.44;5142653;27;20438;-43
2022/06/09 09:45:17;;;;;;;0.20;0.20;;;;;;;21.24;50.21;101030.34;5152712;27;20118;-43
2022/06/09 09:47:54;;;;;;;0.10;0.10;;;;;;;21.24;50.19;101035.03;5151440;27;21949;-43
2022/06/09 09:50:35;;;;;;;0.10;0.10;;;;;;;21.25;50.03;101039.50;5130456;27;20161;-44
2022/06/09 09:53:05;;;;;;;0.20;0.20;;;;;;;21.24;50.29;101044.22;5150477;27;20433;-42
2022/06/09 10:00:57;;;;;;;0.20;0.20;;;;;;;21.24;50.01;101062.75;5158971;27;20209;-33
2022/06/09 10:09:28;;;;;;;0.13;0.13;;;;;;;21.24;49.94;101084.91;5113465;27;20239;-33
2022/06/09 10:11:59;;;;;;;0.15;0.15;;;;;;;21.23;50.23;101083.25;5125482;27;20138;-33
2022/06/09 10:14:45;;;;;;;0.20;0.20;;;;;;;21.24;50.10;101080.22;5115719;27;20503;-34
2022/06/09 10:18:07;;;;;;;0.10;0.10;;;;;;;21.24;50.01;101082.13;5115090;27;20117;-36
2022/06/09 10:21:04;;;;;;;0.10;0.10;;;;;;;21.23;50.02;101081.31;5101445;27;20051;-36
2022/06/09 10:23:54;;;;;;;0.10;0.10;;;;;;;21.24;50.17;101082.97;5115582;27;20043;-35
2022/06/09 10:26:24;;;;;;;0.20;0.20;;;;;;;21.23;49.98;101075.78;5117388;27;20074;-35
2022/06/09 10:28:58;;;;;;;0.10;0.10;;;;;;;21.24;50.25;101088.53;5132146;27;20529;-35
2022/06/09 10:31:46;;;;;;;0.10;0.10;;;;;;;21.25;50.14;101086.56;5129502;27;20138;-35
2022/06/09 10:34:49;;;;;;;0.10;0.10;;;;;;;21.25;49.92;101100.44;5119168;27;20544;-35
2022/06/09 10:37:25;;;;;;;0.20;0.20;;;;;;;21.24;49.99;101098.75;5121126;27;20514;-35
2022/06/09 10:40:03;;;;;;;0.10;0.10;;;;;;;21.24;50.05;101095.97;5130204;27;20540;-34
2022/06/09 10:42:49;;;;;;;;;;;;;;;21.24;49.99;101090.44;5121061;27;20249;-34
2022/06/09 10:45:22;;;;;;;0.10;0.10;;;;;;;21.24;49.99;101093.22;5110239;27;20407;-34
2022/06/09 10:57:14;;;;;;;0.10;0.10;;;;;;;21.24;49.97;101105.16;5108251;27;20086;-34
2022/06/09 10:59:50;;;;;;;0.20;0.20;;;;;;;21.26;50.09;101110.38;5113035;27;20969;-34
2022/06/09 11:02:21;;;;;;;0.10;0.10;;;;;;;21.24;49.93;101109.81;5128378;27;20130;-33
2022/06/09 11:04:49;;;;;;;0.20;0.20;;;;;;;21.25;49.96;101114.28;5138892;27;20471;-34
2022/06/09 11:07:41;;;;;;;0.10;0.10;;;;;;;21.25;50.26;101112.31;5117429;27;20039;-34
2022/06/09 11:10:22;;;;;;;0.10;0.10;;;;;;;21.25;50.01;101114.28;5114356;27;20138;-35
2022/06/09 11:13:20;;;;;;;0.10;0.10;;;;;;;21.24;50.22;101109.81;5116529;27;20123;-34
2022/06/09 11:16:24;;;;;;;0.30;0.30;;;;;;;21.25;49.89;101112.31;5104699;28;20089;-34
2022/06/09 11:19:14;;;;;;;0.38;0.20;;;;;;;21.25;49.99;101123.41;5101225;27;20051;-35
2022/06/09 11:21:50;;;;;;;0.20;0.20;;;;;;;21.26;50.13;101124.22;5105253;28;20259;-34
2022/06/09 11:24:32;;;;;;;0.10;0.10;;;;;;;21.19;51.58;101127.31;5116303;27;20130;-34
2022/06/09 11:27:38;;;;;;;0.10;0.10;;;;;;;20.93;54.63;101131.41;5101110;28;20101;-40
2022/06/09 11:32:59;;;;;;;0.10;0.10;;;;;;;21.33;52.48;101140.53;5150426;27;20536;-34
2022/06/09 11:35:49;;;;;;;0.10;0.10;;;;;;;21.34;52.21;101143.03;5143585;27;20080;-33
2022/06/09 11:38:35;;;;;;;0.10;0.10;;;;;;;21.35;51.85;101139.13;5107522;27;20488;-32
2022/06/09 11:41:34;;;;;;;0.20;0.20;;;;;;;21.36;51.60;101146.31;5133122;27;20142;-32
2022/06/09 11:44:21;;;;;;;0.20;0.20;;;;;;;21.37;51.73;101147.97;5126613;27;20227;-33
2022/06/09 11:46:49;;;;;;;0.20;0.20;;;;;;;21.38;51.34;101146.88;5125228;27;20081;-33
2022/06/09 11:49:43;;;;;;;0.10;0.10;;;;;;;21.40;51.44;101157.66;5136317;27;20078;-32
2022/06/09 11:52:17;;;;;;;0.10;0.10;;;;;;;21.41;51.44;101151.00;5103565;27;20150;-43
2022/06/09 11:57:39;;;;;;;0.10;0.10;;;;;;;21.46;51.01;101165.66;5152377;27;20963;-33
2022/06/09 12:00:27;;;;;;;0.20;0.20;;;;;;;21.46;50.92;101165.66;5153894;27;20066;-34
2022/06/09 12:05:48;;;;;;;0.10;0.10;;;;;;;21.47;50.89;101167.28;5153276;27;20668;-35
2022/06/09 12:11:18;;;;;;;0.10;0.10;;;;;;;21.48;50.66;101162.56;5167372;27;20444;-32
2022/06/09 12:19:20;;;;;;;0.20;0.20;;;;;;;21.50;50.67;101169.50;5160282;27;20113;-34
2022/06/09 12:21:50;;;;;;;0.10;0.10;;;;;;;21.52;50.76;101169.19;5160384;27;20126;-32
2022/06/09 12:30:18;;;;;;;0.20;0.20;;;;;;;21.55;50.43;101176.94;5148771;27;20666;-33
2022/06/09 12:32:48;;;;;;;0.10;0.10;;;;;;;21.56;50.29;101178.59;5120688;27;20419;-33
2022/06/09 12:35:24;;;;;;;0.20;0.20;;;;;;;21.56;50.36;101186.91;5116106;27;20138;-33
2022/06/09 12:38:16;;;;;;;0.10;0.10;;;;;;;21.57;50.30;101188.53;5117667;27;20408;-33
2022/06/09 12:40:45;;;;;;;0.10;0.10;;;;;;;21.59;50.18;101191.88;5102852;27;20505;-33
2022/06/09 12:43:33;;;;;;;0.10;0.10;;;;;;;21.60;50.26;101209.31;5113089;27;20043;-33
2022/06/09 12:46:00;;;;;;;;;;;;;;;21.62;50.17;101220.94;5116521;27;20035;-33
2022/06/09 12:48:33;;;;;;;0.10;0.10;;;;;;;21.61;50.41;101216.50;5131034;27;20276;-33